Terminal Aerodrome Forecast
Issued by NWS

Home | Current Version | Previous Version | Graphics & Text | Print | Product List | Glossary On
Versions: 1 2 3 4 5 6 7 8 9 10 11 12 13 14 15 16 17 18 19 20 21
463
FTUS43 KPAH 211123
TAFCGI
TAF
KCGI 211123Z 2112/2212 36012KT P6SM -RA OVC009
     FM211400 36015KT 6SM RA BR SCT009 OVC015
      TEMPO 2114/2118 4SM RA BR OVC009
     FM211800 01012KT 5SM RA BR OVC015
     FM220000 02012KT 5SM -RA BR SCT015 OVC025=

USA.gov is the U.S. government's official web portal to all federal, state and local government web resources and services.